createdAt,value
2019-05-12T00:01:54.002Z,99152.48
2019-05-12T00:06:58.530Z,99153.98
2019-05-12T00:12:01.813Z,99144.88
2019-05-12T00:17:05.157Z,99152.68
2019-05-12T00:22:08.242Z,99152.45
2019-05-12T00:27:14.946Z,99157.50
2019-05-12T00:32:17.945Z,99160.73
2019-05-12T00:37:21.236Z,99161.58
2019-05-12T00:42:24.204Z,99164.00
2019-05-12T00:47:28.024Z,99163.04
2019-05-12T00:52:31.142Z,99165.45
2019-05-12T00:57:34.316Z,99167.52
2019-05-12T01:02:37.972Z,99164.25
2019-05-12T01:07:41.136Z,99173.73
2019-05-12T01:12:44.255Z,99173.08
2019-05-12T01:17:47.773Z,99176.69
2019-05-12T01:22:51.023Z,99170.75
2019-05-12T01:27:53.950Z,99171.30
2019-05-12T01:32:58.106Z,99176.30
2019-05-12T01:38:01.624Z,99180.45
2019-05-12T01:43:04.784Z,99182.22
2019-05-12T01:48:08.981Z,99182.73
2019-05-12T01:53:12.978Z,99183.61
2019-05-12T01:58:19.047Z,99190.55
2019-05-12T02:03:21.102Z,99190.16
2019-05-12T02:08:33.069Z,99192.73
2019-05-12T02:13:38.014Z,99195.52
2019-05-12T02:18:41.005Z,99200.36
2019-05-12T02:23:44.038Z,99206.95
2019-05-12T02:28:48.074Z,99206.80
2019-05-12T02:33:51.230Z,99210.08
2019-05-12T02:38:55.951Z,99211.41
2019-05-12T02:43:59.174Z,99214.81
2019-05-12T02:49:04.875Z,99218.70
2019-05-12T02:54:07.512Z,99213.88
2019-05-12T02:59:11.699Z,99220.77
2019-05-12T03:04:17.234Z,99230.71
2019-05-12T03:09:24.343Z,99227.46
2019-05-12T03:14:27.038Z,99222.59
2019-05-12T03:19:30.007Z,99225.59
2019-05-12T03:24:34.208Z,99233.75
2019-05-12T03:29:37.363Z,99239.42
2019-05-12T03:34:40.822Z,99244.77
2019-05-12T03:39:44.734Z,99247.36
2019-05-12T03:44:47.972Z,99251.34
2019-05-12T03:49:54.234Z,99266.88
2019-05-12T03:54:58.095Z,99266.40
2019-05-12T04:00:01.052Z,99270.12
2019-05-12T04:05:05.622Z,99273.01
2019-05-12T04:10:09.244Z,99281.47
2019-05-12T04:15:15.197Z,99293.97
2019-05-12T04:20:17.606Z,99299.56
2019-05-12T04:25:20.546Z,99307.54
2019-05-12T04:30:25.179Z,99320.63
2019-05-12T04:35:28.495Z,99327.41
2019-05-12T04:40:31.553Z,99334.27
2019-05-12T04:45:35.139Z,99330.28
2019-05-12T04:50:38.400Z,99333.91
2019-05-12T04:55:44.229Z,99339.10
2019-05-12T05:00:46.544Z,99342.74
2019-05-12T05:05:49.635Z,99345.74
2019-05-12T05:10:54.775Z,99363.98
2019-05-12T05:15:57.542Z,99372.50
2019-05-12T05:21:00.466Z,99378.05
2019-05-12T05:26:03.455Z,99378.16
2019-05-12T05:31:06.483Z,99389.69
2019-05-12T05:36:15.137Z,99392.73
2019-05-12T05:41:14.343Z,99408.72
2019-05-12T05:46:17.472Z,99411.30
2019-05-12T05:51:20.626Z,99424.21
2019-05-12T05:56:38.389Z,99437.58
2019-05-12T06:01:28.494Z,99443.13
2019-05-12T06:06:31.554Z,99451.09
2019-05-12T06:11:36.471Z,99444.55
2019-05-12T06:16:39.480Z,99454.24
2019-05-12T06:21:43.990Z,99458.36
2019-05-12T06:26:57.662Z,99459.41
2019-05-12T06:31:54.248Z,99458.41
2019-05-12T06:37:03.049Z,99462.41
2019-05-12T06:42:12.362Z,99463.38
2019-05-12T06:47:08.452Z,99477.63
2019-05-12T06:52:11.589Z,99480.75
2019-05-12T06:57:24.045Z,99479.27
2019-05-12T07:02:19.441Z,99477.88
2019-05-12T07:07:25.554Z,99484.77
2019-05-12T07:12:33.562Z,99483.79
2019-05-12T07:17:49.239Z,99490.09
2019-05-12T07:22:48.497Z,99490.67
2019-05-12T07:27:58.411Z,99484.79
2019-05-12T07:33:01.377Z,99487.60
2019-05-12T07:38:05.205Z,99484.38
2019-05-12T07:43:16.275Z,99488.06
2019-05-12T07:48:16.051Z,99484.63
2019-05-12T07:53:19.173Z,99491.01
2019-05-12T07:58:23.986Z,99495.50
2019-05-12T08:03:27.087Z,99498.26
2019-05-12T08:08:33.850Z,99488.31
2019-05-12T08:13:37.821Z,99492.06
2019-05-12T08:18:41.123Z,99491.53
2019-05-12T08:23:44.691Z,99497.94
2019-05-12T08:28:47.723Z,99515.41
2019-05-12T08:33:50.705Z,99513.51
2019-05-12T08:38:53.819Z,99519.39
2019-05-12T08:43:58.469Z,99527.00
2019-05-12T08:49:03.017Z,99528.87
2019-05-12T08:54:08.106Z,99536.26
2019-05-12T08:59:17.571Z,99540.42
2019-05-12T09:04:18.375Z,99556.16
2019-05-12T09:09:23.255Z,99555.88
2019-05-12T09:14:26.649Z,99566.60
2019-05-12T09:19:29.615Z,99577.06
2019-05-12T09:24:33.755Z,99572.25
2019-05-12T09:29:37.084Z,99583.78
2019-05-12T09:34:46.882Z,99578.96
2019-05-12T09:39:47.332Z,99581.08
2019-05-12T09:44:50.390Z,99599.05
2019-05-12T09:49:53.618Z,99593.89
2019-05-12T09:54:56.706Z,99593.12
2019-05-12T09:59:59.806Z,99593.31
2019-05-12T10:05:03.917Z,99594.64
2019-05-12T10:10:07.724Z,99593.76
2019-05-12T10:15:13.490Z,99590.87
2019-05-12T10:20:16.899Z,99582.45
2019-05-12T10:25:23.198Z,99587.10
2019-05-12T10:30:25.245Z,99586.76
2019-05-12T10:35:28.467Z,99593.34
2019-05-12T10:40:33.621Z,99601.67
2019-05-12T10:45:36.568Z,99608.90
2019-05-12T10:50:39.795Z,99613.52
2019-05-12T10:55:44.052Z,99623.59
2019-05-12T11:00:47.510Z,99631.70
2019-05-12T11:05:56.673Z,99632.00
2019-05-12T11:11:01.208Z,99632.97
2019-05-12T11:16:00.945Z,99630.09
2019-05-12T11:21:04.001Z,99634.83
2019-05-12T11:26:07.036Z,99637.54
2019-05-12T11:31:10.454Z,99643.00
2019-05-12T11:36:13.641Z,99651.34
2019-05-12T11:41:20.282Z,99656.27
2019-05-12T11:46:23.645Z,99657.73
2019-05-12T11:51:30.253Z,99672.84
2019-05-12T11:56:33.644Z,99676.62
2019-05-12T12:01:39.631Z,99682.39
2019-05-12T12:06:43.703Z,99691.38
2019-05-12T12:11:46.624Z,99701.39
2019-05-12T12:16:50.483Z,99704.33
2019-05-12T12:21:54.580Z,99715.75
2019-05-12T12:26:57.729Z,99729.60
2019-05-12T12:32:00.679Z,99736.17
2019-05-12T12:37:03.672Z,99748.02
2019-05-12T12:42:06.778Z,99771.30
2019-05-12T12:47:09.728Z,99789.88
2019-05-12T12:52:13.745Z,99800.25
2019-05-12T12:57:19.129Z,99816.30
2019-05-12T13:02:24.503Z,99827.55
2019-05-12T13:07:27.258Z,99851.25
2019-05-12T13:12:33.855Z,99856.97
2019-05-12T13:17:41.547Z,99879.41
2019-05-12T13:22:40.216Z,99884.26
2019-05-12T13:27:43.196Z,99898.79
2019-05-12T13:32:46.234Z,99896.84
2019-05-12T13:37:50.410Z,99915.53
2019-05-12T13:42:54.552Z,99914.58
2019-05-12T13:47:57.620Z,99923.72
2019-05-12T13:53:01.290Z,99925.89
2019-05-12T13:58:05.630Z,99933.52
2019-05-12T14:03:09.820Z,99931.80
2019-05-12T14:08:14.677Z,99939.39
2019-05-12T14:13:18.070Z,99960.96
2019-05-12T14:18:21.135Z,99953.01
2019-05-12T14:23:24.124Z,99967.65
2019-05-12T14:28:27.514Z,99977.77
2019-05-12T14:33:37.461Z,99987.99
2019-05-12T14:38:36.031Z,100010.95
2019-05-12T14:43:39.399Z,100031.56
2019-05-12T14:48:48.418Z,100039.91
2019-05-12T14:53:48.120Z,100057.96
2019-05-12T14:58:56.453Z,100053.69
2019-05-12T15:03:56.371Z,100064.63
2019-05-12T15:08:59.443Z,100069.71
2019-05-12T15:14:03.170Z,100072.79
2019-05-12T15:19:09.438Z,100083.20
2019-05-12T15:24:15.508Z,100089.38
2019-05-12T15:29:19.719Z,100094.16
2019-05-12T15:34:23.613Z,100098.63
2019-05-12T15:39:26.635Z,100103.55
2019-05-12T15:44:32.320Z,100100.30
2019-05-12T15:49:34.522Z,100100.03
2019-05-12T15:54:45.846Z,100111.22
2019-05-12T15:59:43.499Z,100116.52
2019-05-12T16:04:48.611Z,100114.38
2019-05-12T16:09:51.680Z,100115.39
2019-05-12T16:14:54.745Z,100128.52
2019-05-12T16:19:57.713Z,100140.31
2019-05-12T16:25:00.753Z,100145.10
2019-05-12T16:30:04.847Z,100145.52
2019-05-12T16:35:07.955Z,100154.77
2019-05-12T16:40:13.416Z,100161.48
2019-05-12T16:45:15.998Z,100161.12
2019-05-12T16:50:24.852Z,100160.34
2019-05-12T16:55:24.409Z,100165.50
2019-05-12T17:00:30.518Z,100158.38
2019-05-12T17:05:33.556Z,100162.95
2019-05-12T17:10:36.785Z,100162.55
2019-05-12T17:15:48.865Z,100159.29
2019-05-12T17:20:50.916Z,100168.24
2019-05-12T17:25:54.021Z,100178.98
2019-05-12T17:30:57.076Z,100191.81
2019-05-12T17:36:03.127Z,100203.61
2019-05-12T17:41:05.464Z,100212.16
2019-05-12T17:46:11.434Z,100202.89
2019-05-12T17:51:13.787Z,100211.74
2019-05-12T17:56:16.963Z,100235.05
2019-05-12T18:01:22.998Z,100226.04
2019-05-12T18:06:26.952Z,100243.23
2019-05-12T18:11:30.160Z,100243.22
2019-05-12T18:16:33.951Z,100238.66
2019-05-12T18:21:37.077Z,100249.69
2019-05-12T18:26:40.246Z,100266.88
2019-05-12T18:31:43.710Z,100274.02
2019-05-12T18:36:49.021Z,100280.60
2019-05-12T18:41:54.152Z,100281.23
2019-05-12T18:46:57.069Z,100297.48
2019-05-12T18:52:00.102Z,100303.48
2019-05-12T18:57:07.224Z,100311.92
2019-05-12T19:02:08.428Z,100315.92
2019-05-12T19:07:11.854Z,100321.55
2019-05-12T19:12:20.846Z,100335.07
2019-05-12T19:17:20.903Z,100325.55
2019-05-12T19:22:24.344Z,100335.25
2019-05-12T19:27:27.513Z,100345.63
2019-05-12T19:32:30.564Z,100341.45
2019-05-12T19:37:33.969Z,100346.30
2019-05-12T19:42:37.085Z,100364.38
2019-05-12T19:47:40.250Z,100362.84
2019-05-12T19:52:43.608Z,100373.08
2019-05-12T19:57:49.960Z,100382.52
2019-05-12T20:02:53.744Z,100389.99
2019-05-12T20:07:56.925Z,100391.62
2019-05-12T20:12:59.924Z,100403.85
2019-05-12T20:18:04.273Z,100415.31
2019-05-12T20:23:07.529Z,100413.17
2019-05-12T20:28:11.574Z,100421.22
2019-05-12T20:33:15.454Z,100425.58
2019-05-12T20:38:18.454Z,100426.38
2019-05-12T20:43:23.999Z,100425.45
2019-05-12T20:48:30.988Z,100439.91
2019-05-12T20:53:33.745Z,100434.19
2019-05-12T20:58:43.053Z,100429.80
2019-05-12T21:03:46.264Z,100432.28
2019-05-12T21:08:53.138Z,100425.19
2019-05-12T21:13:51.079Z,100421.05
2019-05-12T21:19:05.903Z,100428.96
2019-05-12T21:23:59.582Z,100429.59
2019-05-12T21:29:04.744Z,100429.78
2019-05-12T21:34:15.060Z,100427.16
2019-05-12T21:39:13.949Z,100421.44
2019-05-12T21:44:17.285Z,100423.38
2019-05-12T21:49:20.344Z,100423.57
2019-05-12T21:54:24.222Z,100434.88
2019-05-12T21:59:28.915Z,100440.64
2019-05-12T22:04:40.987Z,100446.69
2019-05-12T22:09:41.752Z,100456.61
2019-05-12T22:14:43.706Z,100465.27
2019-05-12T22:19:47.435Z,100478.42
2019-05-12T22:24:50.439Z,100471.73
2019-05-12T22:29:53.399Z,100474.70
2019-05-12T22:34:56.529Z,100487.80
2019-05-12T22:39:59.597Z,100484.34
2019-05-12T22:45:05.815Z,100485.41
2019-05-12T22:50:08.626Z,100487.09
2019-05-12T22:55:14.007Z,100484.27
2019-05-12T23:00:19.220Z,100480.13
2019-05-12T23:05:24.186Z,100491.00
2019-05-12T23:10:27.396Z,100497.13
2019-05-12T23:15:30.462Z,100496.22
2019-05-12T23:20:35.676Z,100498.45
2019-05-12T23:25:38.613Z,100508.78
2019-05-12T23:30:43.925Z,100509.87
2019-05-12T23:35:46.563Z,100506.09
2019-05-12T23:40:49.586Z,100510.24
2019-05-12T23:45:53.358Z,100509.41
2019-05-12T23:50:56.598Z,100517.92
2019-05-12T23:55:59.593Z,100515.70
